sensor_id;sensor_type;location;lat;lon;timestamp;P1;durP1;ratioP1;P2;durP2;ratioP2
20166;SDS011;10243;49.118;8.508;2023-03-17T00:00:06;7.53;;;6.00;;
20166;SDS011;10243;49.118;8.508;2023-03-17T00:00:33;7.13;;;6.22;;
20166;SDS011;10243;49.118;8.508;2023-03-17T00:00:53;7.90;;;6.22;;
20166;SDS011;10243;49.118;8.508;2023-03-17T00:01:14;6.63;;;6.00;;
20166;SDS011;10243;49.118;8.508;2023-03-17T00:01:35;7.25;;;6.20;;
20166;SDS011;10243;49.118;8.508;2023-03-17T00:01:56;6.97;;;6.23;;
20166;SDS011;10243;49.118;8.508;2023-03-17T00:02:16;6.97;;;6.25;;
20166;SDS011;10243;49.118;8.508;2023-03-17T00:02:37;6.73;;;6.03;;
20166;SDS011;10243;49.118;8.508;2023-03-17T00:03:00;7.53;;;6.10;;
20166;SDS011;10243;49.118;8.508;2023-03-17T00:03:23;6.45;;;5.85;;
20166;SDS011;10243;49.118;8.508;2023-03-17T00:03:44;6.43;;;5.82;;
20166;SDS011;10243;49.118;8.508;2023-03-17T00:04:08;7.18;;;5.60;;
20166;SDS011;10243;49.118;8.508;2023-03-17T00:04:29;7.13;;;6.00;;
20166;SDS011;10243;49.118;8.508;2023-03-17T00:04:50;6.63;;;6.03;;
20166;SDS011;10243;49.118;8.508;2023-03-17T00:05:15;7.87;;;6.17;;
20166;SDS011;10243;49.118;8.508;2023-03-17T00:05:36;6.70;;;5.90;;
20166;SDS011;10243;49.118;8.508;2023-03-17T00:05:58;6.63;;;5.55;;
20166;SDS011;10243;49.118;8.508;2023-03-17T00:06:20;6.55;;;5.70;;
20166;SDS011;10243;49.118;8.508;2023-03-17T00:06:43;9.50;;;6.05;;
20166;SDS011;10243;49.118;8.508;2023-03-17T00:07:05;10.43;;;5.82;;
20166;SDS011;10243;49.118;8.508;2023-03-17T00:07:26;7.10;;;5.60;;
20166;SDS011;10243;49.118;8.508;2023-03-17T00:07:46;9.60;;;6.20;;
20166;SDS011;10243;49.118;8.508;2023-03-17T00:08:10;7.15;;;5.90;;
20166;SDS011;10243;49.118;8.508;2023-03-17T00:08:33;6.55;;;5.90;;
20166;SDS011;10243;49.118;8.508;2023-03-17T00:08:54;7.65;;;6.07;;
20166;SDS011;10243;49.118;8.508;2023-03-17T00:09:16;6.75;;;6.05;;
20166;SDS011;10243;49.118;8.508;2023-03-17T00:09:37;7.35;;;5.97;;
20166;SDS011;10243;49.118;8.508;2023-03-17T00:09:58;6.77;;;5.97;;
20166;SDS011;10243;49.118;8.508;2023-03-17T00:10:20;8.50;;;5.97;;
20166;SDS011;10243;49.118;8.508;2023-03-17T00:10:41;10.38;;;5.57;;
20166;SDS011;10243;49.118;8.508;2023-03-17T00:11:01;7.33;;;5.77;;
20166;SDS011;10243;49.118;8.508;2023-03-17T00:11:22;7.10;;;5.75;;
20166;SDS011;10243;49.118;8.508;2023-03-17T00:11:44;8.63;;;5.90;;
20166;SDS011;10243;49.118;8.508;2023-03-17T00:12:08;6.65;;;5.70;;
20166;SDS011;10243;49.118;8.508;2023-03-17T00:12:28;6.28;;;5.68;;
20166;SDS011;10243;49.118;8.508;2023-03-17T00:12:49;6.60;;;6.00;;
20166;SDS011;10243;49.118;8.508;2023-03-17T00:13:10;6.53;;;5.88;;
20166;SDS011;10243;49.118;8.508;2023-03-17T00:13:32;6.78;;;6.15;;
20166;SDS011;10243;49.118;8.508;2023-03-17T00:13:52;6.80;;;6.10;;
20166;SDS011;10243;49.118;8.508;2023-03-17T00:14:13;6.93;;;5.90;;
20166;SDS011;10243;49.118;8.508;2023-03-17T00:14:33;6.97;;;6.10;;
20166;SDS011;10243;49.118;8.508;2023-03-17T00:14:54;7.18;;;5.78;;
20166;SDS011;10243;49.118;8.508;2023-03-17T00:15:15;7.03;;;5.80;;
20166;SDS011;10243;49.118;8.508;2023-03-17T00:15:38;6.93;;;6.20;;
20166;SDS011;10243;49.118;8.508;2023-03-17T00:16:00;7.97;;;6.40;;
20166;SDS011;10243;49.118;8.508;2023-03-17T00:16:21;6.20;;;5.70;;
20166;SDS011;10243;49.118;8.508;2023-03-17T00:16:46;6.28;;;5.68;;
20166;SDS011;10243;49.118;8.508;2023-03-17T00:17:07;6.50;;;5.88;;
20166;SDS011;10243;49.118;8.508;2023-03-17T00:17:29;8.20;;;6.00;;
20166;SDS011;10243;49.118;8.508;2023-03-17T00:17:49;6.97;;;6.00;;
20166;SDS011;10243;49.118;8.508;2023-03-17T00:18:11;8.52;;;5.85;;
20166;SDS011;10243;49.118;8.508;2023-03-17T00:18:32;11.18;;;5.95;;
20166;SDS011;10243;49.118;8.508;2023-03-17T00:18:54;7.32;;;5.90;;
20166;SDS011;10243;49.118;8.508;2023-03-17T00:19:15;7.33;;;6.10;;
20166;SDS011;10243;49.118;8.508;2023-03-17T00:19:36;6.70;;;5.95;;
20166;SDS011;10243;49.118;8.508;2023-03-17T00:19:57;6.90;;;6.15;;
20166;SDS011;10243;49.118;8.508;2023-03-17T00:20:21;9.40;;;5.88;;
20166;SDS011;10243;49.118;8.508;2023-03-17T00:20:42;6.80;;;6.07;;
20166;SDS011;10243;49.118;8.508;2023-03-17T00:21:02;7.07;;;6.38;;
20166;SDS011;10243;49.118;8.508;2023-03-17T00:21:26;6.65;;;6.00;;
20166;SDS011;10243;49.118;8.508;2023-03-17T00:21:47;8.02;;;6.10;;
20166;SDS011;10243;49.118;8.508;2023-03-17T00:22:11;7.80;;;6.13;;
20166;SDS011;10243;49.118;8.508;2023-03-17T00:22:34;7.13;;;6.05;;
20166;SDS011;10243;49.118;8.508;2023-03-17T00:22:55;6.60;;;5.67;;
20166;SDS011;10243;49.118;8.508;2023-03-17T00:23:19;8.63;;;6.00;;
20166;SDS011;10243;49.118;8.508;2023-03-17T00:23:39;8.75;;;5.90;;
20166;SDS011;10243;49.118;8.508;2023-03-17T00:24:00;6.95;;;6.15;;
20166;SDS011;10243;49.118;8.508;2023-03-17T00:24:20;7.70;;;5.87;;
20166;SDS011;10243;49.118;8.508;2023-03-17T00:24:42;7.30;;;5.93;;
20166;SDS011;10243;49.118;8.508;2023-03-17T00:25:05;8.13;;;5.70;;
20166;SDS011;10243;49.118;8.508;2023-03-17T00:25:30;6.95;;;6.05;;
20166;SDS011;10243;49.118;8.508;2023-03-17T00:25:52;9.60;;;6.07;;
20166;SDS011;10243;49.118;8.508;2023-03-17T00:26:13;8.43;;;6.13;;
20166;SDS011;10243;49.118;8.508;2023-03-17T00:26:34;7.85;;;6.15;;
20166;SDS011;10243;49.118;8.508;2023-03-17T00:26:55;7.80;;;5.90;;
20166;SDS011;10243;49.118;8.508;2023-03-17T00:27:15;7.60;;;6.03;;
20166;SDS011;10243;49.118;8.508;2023-03-17T00:27:37;6.43;;;5.82;;
20166;SDS011;10243;49.118;8.508;2023-03-17T00:27:59;7.03;;;6.32;;
20166;SDS011;10243;49.118;8.508;2023-03-17T00:28:21;6.55;;;5.90;;
20166;SDS011;10243;49.118;8.508;2023-03-17T00:28:42;7.38;;;6.13;;
20166;SDS011;10243;49.118;8.508;2023-03-17T00:29:02;6.68;;;6.03;;
20166;SDS011;10243;49.118;8.508;2023-03-17T00:29:25;6.72;;;6.13;;
20166;SDS011;10243;49.118;8.508;2023-03-17T00:29:45;6.72;;;6.03;;
20166;SDS011;10243;49.118;8.508;2023-03-17T00:30:08;7.25;;;5.88;;
20166;SDS011;10243;49.118;8.508;2023-03-17T00:30:28;6.90;;;6.03;;
20166;SDS011;10243;49.118;8.508;2023-03-17T00:30:52;9.25;;;6.13;;
20166;SDS011;10243;49.118;8.508;2023-03-17T00:31:14;9.70;;;6.40;;
20166;SDS011;10243;49.118;8.508;2023-03-17T00:31:34;8.57;;;6.20;;
20166;SDS011;10243;49.118;8.508;2023-03-17T00:31:55;9.83;;;6.27;;
20166;SDS011;10243;49.118;8.508;2023-03-17T00:32:16;9.98;;;6.10;;
20166;SDS011;10243;49.118;8.508;2023-03-17T00:32:39;7.45;;;6.00;;
20166;SDS011;10243;49.118;8.508;2023-03-17T00:32:59;7.38;;;5.85;;
20166;SDS011;10243;49.118;8.508;2023-03-17T00:33:21;8.57;;;6.20;;
20166;SDS011;10243;49.118;8.508;2023-03-17T00:33:42;8.15;;;6.00;;
20166;SDS011;10243;49.118;8.508;2023-03-17T00:34:08;6.45;;;5.88;;
20166;SDS011;10243;49.118;8.508;2023-03-17T00:34:30;6.60;;;6.00;;
20166;SDS011;10243;49.118;8.508;2023-03-17T00:34:50;6.50;;;5.80;;
20166;SDS011;10243;49.118;8.508;2023-03-17T00:35:15;6.53;;;5.83;;
20166;SDS011;10243;49.118;8.508;2023-03-17T00:35:36;7.03;;;5.97;;
20166;SDS011;10243;49.118;8.508;2023-03-17T00:35:59;7.65;;;5.90;;
20166;SDS011;10243;49.118;8.508;2023-03-17T00:36:21;7.85;;;5.95;;
20166;SDS011;10243;49.118;8.508;2023-03-17T00:36:43;6.78;;;5.82;;
20166;SDS011;10243;49.118;8.508;2023-03-17T00:37:07;6.60;;;6.00;;
20166;SDS011;10243;49.118;8.508;2023-03-17T00:37:30;7.65;;;6.15;;
20166;SDS011;10243;49.118;8.508;2023-03-17T00:37:51;5.97;;;5.45;;
20166;SDS011;10243;49.118;8.508;2023-03-17T00:38:13;6.18;;;5.68;;
20166;SDS011;10243;49.118;8.508;2023-03-17T00:38:34;7.25;;;5.60;;
20166;SDS011;10243;49.118;8.508;2023-03-17T00:38:56;6.90;;;5.10;;
20166;SDS011;10243;49.118;8.508;2023-03-17T00:39:18;7.90;;;5.30;;
20166;SDS011;10243;49.118;8.508;2023-03-17T00:39:39;6.43;;;5.82;;
20166;SDS011;10243;49.118;8.508;2023-03-17T00:39:59;5.97;;;5.47;;
20166;SDS011;10243;49.118;8.508;2023-03-17T00:40:20;6.00;;;5.40;;
20166;SDS011;10243;49.118;8.508;2023-03-17T00:40:41;7.15;;;5.72;;
20166;SDS011;10243;49.118;8.508;2023-03-17T00:41:04;8.60;;;5.90;;
20166;SDS011;10243;49.118;8.508;2023-03-17T00:41:24;7.05;;;5.93;;
20166;SDS011;10243;49.118;8.508;2023-03-17T00:41:46;6.75;;;5.93;;
20166;SDS011;10243;49.118;8.508;2023-03-17T00:42:06;7.63;;;6.13;;
20166;SDS011;10243;49.118;8.508;2023-03-17T00:42:28;6.60;;;5.97;;
20166;SDS011;10243;49.118;8.508;2023-03-17T00:42:49;6.97;;;6.00;;
20166;SDS011;10243;49.118;8.508;2023-03-17T00:43:10;6.70;;;6.00;;
20166;SDS011;10243;49.118;8.508;2023-03-17T00:43:30;7.73;;;5.77;;
20166;SDS011;10243;49.118;8.508;2023-03-17T00:43:51;6.63;;;5.85;;
20166;SDS011;10243;49.118;8.508;2023-03-17T00:44:12;7.33;;;6.10;;
20166;SDS011;10243;49.118;8.508;2023-03-17T00:44:33;8.23;;;5.97;;
20166;SDS011;10243;49.118;8.508;2023-03-17T00:44:54;7.00;;;5.88;;
20166;SDS011;10243;49.118;8.508;2023-03-17T00:45:15;6.70;;;6.10;;
20166;SDS011;10243;49.118;8.508;2023-03-17T00:45:37;9.32;;;6.40;;
20166;SDS011;10243;49.118;8.508;2023-03-17T00:45:58;7.77;;;5.97;;
20166;SDS011;10243;49.118;8.508;2023-03-17T00:46:22;6.50;;;5.90;;
20166;SDS011;10243;49.118;8.508;2023-03-17T00:46:43;6.47;;;5.88;;
20166;SDS011;10243;49.118;8.508;2023-03-17T00:47:05;6.53;;;5.80;;
20166;SDS011;10243;49.118;8.508;2023-03-17T00:47:27;7.60;;;6.13;;
20166;SDS011;10243;49.118;8.508;2023-03-17T00:47:48;6.82;;;6.22;;
20166;SDS011;10243;49.118;8.508;2023-03-17T00:48:11;6.90;;;6.30;;
20166;SDS011;10243;49.118;8.508;2023-03-17T00:48:32;7.18;;;6.03;;
20166;SDS011;10243;49.118;8.508;2023-03-17T00:48:54;7.80;;;6.20;;
20166;SDS011;10243;49.118;8.508;2023-03-17T00:49:16;6.70;;;6.00;;
20166;SDS011;10243;49.118;8.508;2023-03-17T00:49:36;7.22;;;6.43;;
20166;SDS011;10243;49.118;8.508;2023-03-17T00:49:57;8.23;;;6.07;;
20166;SDS011;10243;49.118;8.508;2023-03-17T00:50:18;8.70;;;6.10;;
20166;SDS011;10243;49.118;8.508;2023-03-17T00:50:41;7.35;;;6.05;;
20166;SDS011;10243;49.118;8.508;2023-03-17T00:51:01;7.17;;;6.10;;
20166;SDS011;10243;49.118;8.508;2023-03-17T00:51:22;6.70;;;6.00;;
20166;SDS011;10243;49.118;8.508;2023-03-17T00:51:42;7.43;;;6.20;;
20166;SDS011;10243;49.118;8.508;2023-03-17T00:52:04;9.88;;;6.10;;
20166;SDS011;10243;49.118;8.508;2023-03-17T00:52:26;7.22;;;6.18;;
20166;SDS011;10243;49.118;8.508;2023-03-17T00:52:47;7.40;;;6.37;;
20166;SDS011;10243;49.118;8.508;2023-03-17T00:53:09;8.95;;;6.10;;
20166;SDS011;10243;49.118;8.508;2023-03-17T00:53:29;8.20;;;6.25;;
20166;SDS011;10243;49.118;8.508;2023-03-17T00:53:52;7.32;;;6.15;;
20166;SDS011;10243;49.118;8.508;2023-03-17T00:54:14;7.00;;;6.27;;
20166;SDS011;10243;49.118;8.508;2023-03-17T00:54:34;8.60;;;6.35;;
20166;SDS011;10243;49.118;8.508;2023-03-17T00:54:55;7.07;;;5.97;;
20166;SDS011;10243;49.118;8.508;2023-03-17T00:55:16;7.80;;;6.23;;
20166;SDS011;10243;49.118;8.508;2023-03-17T00:55:37;10.55;;;5.97;;
20166;SDS011;10243;49.118;8.508;2023-03-17T00:55:57;6.53;;;5.17;;
20166;SDS011;10243;49.118;8.508;2023-03-17T00:56:18;5.93;;;5.45;;
20166;SDS011;10243;49.118;8.508;2023-03-17T00:56:39;6.30;;;5.70;;
20166;SDS011;10243;49.118;8.508;2023-03-17T00:57:00;8.68;;;5.90;;
20166;SDS011;10243;49.118;8.508;2023-03-17T00:57:22;7.05;;;6.35;;
20166;SDS011;10243;49.118;8.508;2023-03-17T00:57:42;8.60;;;6.45;;
20166;SDS011;10243;49.118;8.508;2023-03-17T00:58:08;7.35;;;6.57;;
20166;SDS011;10243;49.118;8.508;2023-03-17T00:58:30;8.32;;;6.40;;
20166;SDS011;10243;49.118;8.508;2023-03-17T00:58:51;7.15;;;6.22;;
20166;SDS011;10243;49.118;8.508;2023-03-17T00:59:15;6.40;;;5.80;;
20166;SDS011;10243;49.118;8.508;2023-03-17T00:59:37;6.63;;;5.93;;
20166;SDS011;10243;49.118;8.508;2023-03-17T00:59:58;6.72;;;5.68;;
20166;SDS011;10243;49.118;8.508;2023-03-17T01:00:21;6.70;;;6.00;;
20166;SDS011;10243;49.118;8.508;2023-03-17T01:00:43;7.80;;;6.22;;
20166;SDS011;10243;49.118;8.508;2023-03-17T01:01:06;6.65;;;5.97;;
20166;SDS011;10243;49.118;8.508;2023-03-17T01:01:27;9.27;;;6.00;;
20166;SDS011;10243;49.118;8.508;2023-03-17T01:01:48;9.03;;;5.83;;
20166;SDS011;10243;49.118;8.508;2023-03-17T01:02:09;6.78;;;6.03;;
20166;SDS011;10243;49.118;8.508;2023-03-17T01:02:31;7.90;;;6.10;;
20166;SDS011;10243;49.118;8.508;2023-03-17T01:02:53;8.90;;;5.90;;
20166;SDS011;10243;49.118;8.508;2023-03-17T01:03:13;6.63;;;6.03;;
20166;SDS011;10243;49.118;8.508;2023-03-17T01:03:34;6.53;;;5.93;;
20166;SDS011;10243;49.118;8.508;2023-03-17T01:03:55;6.40;;;5.80;;
20166;SDS011;10243;49.118;8.508;2023-03-17T01:04:17;7.30;;;6.38;;
20166;SDS011;10243;49.118;8.508;2023-03-17T01:04:39;9.07;;;6.68;;
20166;SDS011;10243;49.118;8.508;2023-03-17T01:05:00;7.50;;;6.45;;
20166;SDS011;10243;49.118;8.508;2023-03-17T01:05:22;7.15;;;5.78;;
20166;SDS011;10243;49.118;8.508;2023-03-17T01:05:42;7.05;;;5.78;;
20166;SDS011;10243;49.118;8.508;2023-03-17T01:06:03;6.27;;;5.67;;
20166;SDS011;10243;49.118;8.508;2023-03-17T01:06:25;7.32;;;5.85;;
20166;SDS011;10243;49.118;8.508;2023-03-17T01:06:47;8.23;;;6.07;;
20166;SDS011;10243;49.118;8.508;2023-03-17T01:07:08;7.88;;;6.30;;
20166;SDS011;10243;49.118;8.508;2023-03-17T01:07:31;7.13;;;6.43;;
20166;SDS011;10243;49.118;8.508;2023-03-17T01:07:52;6.67;;;6.07;;
20166;SDS011;10243;49.118;8.508;2023-03-17T01:08:14;8.07;;;6.00;;
20166;SDS011;10243;49.118;8.508;2023-03-17T01:08:35;6.63;;;5.80;;
20166;SDS011;10243;49.118;8.508;2023-03-17T01:08:55;6.30;;;5.68;;
20166;SDS011;10243;49.118;8.508;2023-03-17T01:09:18;7.75;;;6.05;;
20166;SDS011;10243;49.118;8.508;2023-03-17T01:09:39;6.72;;;6.10;;
20166;SDS011;10243;49.118;8.508;2023-03-17T01:10:02;8.20;;;6.07;;
20166;SDS011;10243;49.118;8.508;2023-03-17T01:10:23;7.57;;;6.00;;
20166;SDS011;10243;49.118;8.508;2023-03-17T01:10:45;7.72;;;6.22;;
20166;SDS011;10243;49.118;8.508;2023-03-17T01:11:05;7.23;;;6.20;;
20166;SDS011;10243;49.118;8.508;2023-03-17T01:11:27;6.53;;;5.93;;
20166;SDS011;10243;49.118;8.508;2023-03-17T01:11:48;7.97;;;6.40;;
20166;SDS011;10243;49.118;8.508;2023-03-17T01:12:09;7.07;;;6.00;;
20166;SDS011;10243;49.118;8.508;2023-03-17T01:12:29;6.63;;;6.03;;
20166;SDS011;10243;49.118;8.508;2023-03-17T01:12:52;6.05;;;5.55;;
20166;SDS011;10243;49.118;8.508;2023-03-17T01:13:13;6.30;;;5.70;;
20166;SDS011;10243;49.118;8.508;2023-03-17T01:13:34;6.55;;;5.97;;
20166;SDS011;10243;49.118;8.508;2023-03-17T01:13:55;7.72;;;6.13;;
20166;SDS011;10243;49.118;8.508;2023-03-17T01:14:17;8.93;;;6.30;;
20166;SDS011;10243;49.118;8.508;2023-03-17T01:14:38;8.07;;;6.47;;
20166;SDS011;10243;49.118;8.508;2023-03-17T01:14:59;9.68;;;6.20;;
20166;SDS011;10243;49.118;8.508;2023-03-17T01:15:23;6.63;;;6.03;;
20166;SDS011;10243;49.118;8.508;2023-03-17T01:15:44;6.63;;;6.03;;
20166;SDS011;10243;49.118;8.508;2023-03-17T01:16:09;7.53;;;6.10;;
20166;SDS011;10243;49.118;8.508;2023-03-17T01:16:29;8.35;;;6.50;;
20166;SDS011;10243;49.118;8.508;2023-03-17T01:16:49;7.57;;;6.20;;
20166;SDS011;10243;49.118;8.508;2023-03-17T01:17:13;6.70;;;6.10;;
20166;SDS011;10243;49.118;8.508;2023-03-17T01:17:35;7.35;;;6.55;;
20166;SDS011;10243;49.118;8.508;2023-03-17T01:17:57;9.00;;;6.68;;
20166;SDS011;10243;49.118;8.508;2023-03-17T01:18:18;6.82;;;5.97;;
20166;SDS011;10243;49.118;8.508;2023-03-17T01:18:41;6.57;;;5.95;;
20166;SDS011;10243;49.118;8.508;2023-03-17T01:19:01;7.30;;;6.20;;
20166;SDS011;10243;49.118;8.508;2023-03-17T01:19:23;7.03;;;6.07;;
20166;SDS011;10243;49.118;8.508;2023-03-17T01:19:44;6.88;;;6.28;;
20166;SDS011;10243;49.118;8.508;2023-03-17T01:20:05;6.50;;;6.00;;
20166;SDS011;10243;49.118;8.508;2023-03-17T01:20:26;6.68;;;5.95;;
20166;SDS011;10243;49.118;8.508;2023-03-17T01:20:48;9.13;;;6.20;;
20166;SDS011;10243;49.118;8.508;2023-03-17T01:21:09;7.63;;;6.18;;
20166;SDS011;10243;49.118;8.508;2023-03-17T01:21:29;9.90;;;6.20;;
20166;SDS011;10243;49.118;8.508;2023-03-17T01:21:50;7.63;;;6.43;;
20166;SDS011;10243;49.118;8.508;2023-03-17T01:22:12;7.03;;;6.43;;
20166;SDS011;10243;49.118;8.508;2023-03-17T01:22:32;7.22;;;6.53;;
20166;SDS011;10243;49.118;8.508;2023-03-17T01:22:53;6.70;;;6.03;;
20166;SDS011;10243;49.118;8.508;2023-03-17T01:23:13;8.87;;;6.50;;
20166;SDS011;10243;49.118;8.508;2023-03-17T01:23:36;8.98;;;6.78;;
20166;SDS011;10243;49.118;8.508;2023-03-17T01:23:57;7.78;;;6.40;;
20166;SDS011;10243;49.118;8.508;2023-03-17T01:24:17;8.67;;;6.60;;
20166;SDS011;10243;49.118;8.508;2023-03-17T01:24:39;7.82;;;6.40;;
20166;SDS011;10243;49.118;8.508;2023-03-17T01:25:01;8.75;;;6.72;;
20166;SDS011;10243;49.118;8.508;2023-03-17T01:25:22;6.93;;;6.25;;
20166;SDS011;10243;49.118;8.508;2023-03-17T01:25:43;6.57;;;6.07;;
20166;SDS011;10243;49.118;8.508;2023-03-17T01:26:04;6.72;;;6.18;;
20166;SDS011;10243;49.118;8.508;2023-03-17T01:26:25;7.53;;;6.82;;
20166;SDS011;10243;49.118;8.508;2023-03-17T01:26:47;7.43;;;6.72;;
20166;SDS011;10243;49.118;8.508;2023-03-17T01:27:07;7.35;;;6.65;;
20166;SDS011;10243;49.118;8.508;2023-03-17T01:27:32;7.43;;;6.72;;
20166;SDS011;10243;49.118;8.508;2023-03-17T01:27:53;6.82;;;6.20;;
20166;SDS011;10243;49.118;8.508;2023-03-17T01:28:15;7.40;;;6.60;;
20166;SDS011;10243;49.118;8.508;2023-03-17T01:28:37;9.95;;;7.18;;
20166;SDS011;10243;49.118;8.508;2023-03-17T01:28:57;8.63;;;7.07;;
20166;SDS011;10243;49.118;8.508;2023-03-17T01:29:18;7.77;;;6.77;;
20166;SDS011;10243;49.118;8.508;2023-03-17T01:29:38;7.88;;;6.43;;
20166;SDS011;10243;49.118;8.508;2023-03-17T01:30:00;7.30;;;6.60;;
20166;SDS011;10243;49.118;8.508;2023-03-17T01:30:21;8.70;;;6.55;;
20166;SDS011;10243;49.118;8.508;2023-03-17T01:30:42;7.68;;;6.90;;
20166;SDS011;10243;49.118;8.508;2023-03-17T01:31:02;8.00;;;6.83;;
20166;SDS011;10243;49.118;8.508;2023-03-17T01:31:28;6.72;;;6.22;;
20166;SDS011;10243;49.118;8.508;2023-03-17T01:31:49;7.05;;;6.15;;
20166;SDS011;10243;49.118;8.508;2023-03-17T01:32:09;11.00;;;6.73;;
20166;SDS011;10243;49.118;8.508;2023-03-17T01:32:30;10.10;;;6.35;;
20166;SDS011;10243;49.118;8.508;2023-03-17T01:32:53;12.98;;;6.45;;
20166;SDS011;10243;49.118;8.508;2023-03-17T01:33:13;9.05;;;6.20;;
20166;SDS011;10243;49.118;8.508;2023-03-17T01:33:34;7.13;;;6.23;;
20166;SDS011;10243;49.118;8.508;2023-03-17T01:33:54;7.05;;;6.05;;
20166;SDS011;10243;49.118;8.508;2023-03-17T01:34:16;7.90;;;5.80;;
20166;SDS011;10243;49.118;8.508;2023-03-17T01:34:36;8.98;;;5.70;;
20166;SDS011;10243;49.118;8.508;2023-03-17T01:34:57;6.45;;;5.43;;
20166;SDS011;10243;49.118;8.508;2023-03-17T01:35:18;6.00;;;5.50;;
20166;SDS011;10243;49.118;8.508;2023-03-17T01:35:40;5.97;;;5.38;;
20166;SDS011;10243;49.118;8.508;2023-03-17T01:36:02;6.57;;;5.75;;
20166;SDS011;10243;49.118;8.508;2023-03-17T01:36:23;7.03;;;5.87;;
20166;SDS011;10243;49.118;8.508;2023-03-17T01:36:43;6.75;;;6.05;;
20166;SDS011;10243;49.118;8.508;2023-03-17T01:37:07;8.23;;;6.22;;
20166;SDS011;10243;49.118;8.508;2023-03-17T01:37:28;7.22;;;6.22;;
20166;SDS011;10243;49.118;8.508;2023-03-17T01:37:49;7.73;;;6.40;;
20166;SDS011;10243;49.118;8.508;2023-03-17T01:38:10;7.50;;;6.70;;
20166;SDS011;10243;49.118;8.508;2023-03-17T01:38:32;7.00;;;6.40;;
20166;SDS011;10243;49.118;8.508;2023-03-17T01:38:53;7.00;;;6.30;;
20166;SDS011;10243;49.118;8.508;2023-03-17T01:39:14;7.30;;;6.60;;
20166;SDS011;10243;49.118;8.508;2023-03-17T01:39:34;7.13;;;6.30;;
20166;SDS011;10243;49.118;8.508;2023-03-17T01:39:54;8.45;;;6.45;;
20166;SDS011;10243;49.118;8.508;2023-03-17T01:40:16;8.40;;;6.70;;
20166;SDS011;10243;49.118;8.508;2023-03-17T01:40:41;7.25;;;6.50;;
20166;SDS011;10243;49.118;8.508;2023-03-17T01:41:01;7.70;;;6.75;;
20166;SDS011;10243;49.118;8.508;2023-03-17T01:41:22;7.63;;;6.90;;
20166;SDS011;10243;49.118;8.508;2023-03-17T01:41:44;9.73;;;7.18;;
20166;SDS011;10243;49.118;8.508;2023-03-17T01:42:04;8.00;;;7.20;;
20166;SDS011;10243;49.118;8.508;2023-03-17T01:42:27;10.93;;;7.43;;
20166;SDS011;10243;49.118;8.508;2023-03-17T01:42:49;12.02;;;7.38;;
20166;SDS011;10243;49.118;8.508;2023-03-17T01:43:16;8.05;;;6.50;;
20166;SDS011;10243;49.118;8.508;2023-03-17T01:43:37;7.72;;;7.03;;
20166;SDS011;10243;49.118;8.508;2023-03-17T01:43:58;9.85;;;7.15;;
20166;SDS011;10243;49.118;8.508;2023-03-17T01:44:19;10.30;;;6.93;;
20166;SDS011;10243;49.118;8.508;2023-03-17T01:46:47;8.07;;;7.25;;
20166;SDS011;10243;49.118;8.508;2023-03-17T01:47:08;7.78;;;7.05;;
20166;SDS011;10243;49.118;8.508;2023-03-17T01:47:29;8.32;;;7.45;;
20166;SDS011;10243;49.118;8.508;2023-03-17T01:47:51;8.40;;;7.50;;
20166;SDS011;10243;49.118;8.508;2023-03-17T01:48:13;8.27;;;7.47;;
20166;SDS011;10243;49.118;8.508;2023-03-17T01:48:35;8.90;;;8.00;;
20166;SDS011;10243;49.118;8.508;2023-03-17T01:48:59;8.43;;;7.60;;
20166;SDS011;10243;49.118;8.508;2023-03-17T01:49:24;8.55;;;7.45;;
20166;SDS011;10243;49.118;8.508;2023-03-17T01:49:48;8.70;;;7.90;;
20166;SDS011;10243;49.118;8.508;2023-03-17T01:50:09;9.80;;;8.07;;
20166;SDS011;10243;49.118;8.508;2023-03-17T01:50:29;10.30;;;8.20;;
20166;SDS011;10243;49.118;8.508;2023-03-17T01:50:50;9.13;;;7.97;;
20166;SDS011;10243;49.118;8.508;2023-03-17T01:51:12;7.80;;;7.15;;
20166;SDS011;10243;49.118;8.508;2023-03-17T01:51:37;7.70;;;7.00;;
20166;SDS011;10243;49.118;8.508;2023-03-17T01:52:03;9.40;;;7.03;;
20166;SDS011;10243;49.118;8.508;2023-03-17T01:52:25;7.55;;;6.88;;
20166;SDS011;10243;49.118;8.508;2023-03-17T01:52:47;8.10;;;6.95;;
20166;SDS011;10243;49.118;8.508;2023-03-17T01:53:08;10.23;;;6.80;;
20166;SDS011;10243;49.118;8.508;2023-03-17T01:53:30;10.18;;;7.10;;
20166;SDS011;10243;49.118;8.508;2023-03-17T01:53:51;12.43;;;7.20;;
20166;SDS011;10243;49.118;8.508;2023-03-17T01:54:13;8.18;;;6.88;;
20166;SDS011;10243;49.118;8.508;2023-03-17T01:54:36;9.85;;;7.03;;
20166;SDS011;10243;49.118;8.508;2023-03-17T01:55:00;9.75;;;7.30;;
20166;SDS011;10243;49.118;8.508;2023-03-17T01:55:22;7.80;;;6.97;;
20166;SDS011;10243;49.118;8.508;2023-03-17T01:55:42;7.22;;;6.50;;
20166;SDS011;10243;49.118;8.508;2023-03-17T01:56:04;8.93;;;7.18;;
20166;SDS011;10243;49.118;8.508;2023-03-17T01:56:25;7.43;;;6.72;;
20166;SDS011;10243;49.118;8.508;2023-03-17T01:56:45;7.53;;;6.83;;
20166;SDS011;10243;49.118;8.508;2023-03-17T01:57:09;8.93;;;7.05;;
20166;SDS011;10243;49.118;8.508;2023-03-17T01:57:32;7.30;;;6.57;;
20166;SDS011;10243;49.118;8.508;2023-03-17T01:57:56;8.13;;;6.60;;
20166;SDS011;10243;49.118;8.508;2023-03-17T01:58:17;8.75;;;6.35;;
20166;SDS011;10243;49.118;8.508;2023-03-17T01:58:40;6.75;;;6.10;;
20166;SDS011;10243;49.118;8.508;2023-03-17T01:59:01;7.83;;;6.27;;
20166;SDS011;10243;49.118;8.508;2023-03-17T01:59:23;6.80;;;6.10;;
20166;SDS011;10243;49.118;8.508;2023-03-17T01:59:45;7.35;;;6.65;;
20166;SDS011;10243;49.118;8.508;2023-03-17T02:00:07;8.40;;;6.63;;
20166;SDS011;10243;49.118;8.508;2023-03-17T02:00:35;12.15;;;6.68;;
20166;SDS011;10243;49.118;8.508;2023-03-17T02:00:56;9.98;;;6.53;;
20166;SDS011;10243;49.118;8.508;2023-03-17T02:01:16;7.05;;;6.35;;
20166;SDS011;10243;49.118;8.508;2023-03-17T02:01:39;7.57;;;6.68;;
20166;SDS011;10243;49.118;8.508;2023-03-17T02:02:04;7.82;;;6.65;;
20166;SDS011;10243;49.118;8.508;2023-03-17T02:02:27;7.10;;;6.40;;
20166;SDS011;10243;49.118;8.508;2023-03-17T02:02:50;7.10;;;6.40;;
20166;SDS011;10243;49.118;8.508;2023-03-17T02:03:12;7.10;;;6.40;;
20166;SDS011;10243;49.118;8.508;2023-03-17T02:03:32;7.32;;;6.63;;
20166;SDS011;10243;49.118;8.508;2023-03-17T02:03:53;7.68;;;6.88;;
20166;SDS011;10243;49.118;8.508;2023-03-17T02:04:14;7.43;;;6.67;;
20166;SDS011;10243;49.118;8.508;2023-03-17T02:04:35;7.15;;;6.55;;
20166;SDS011;10243;49.118;8.508;2023-03-17T02:04:57;6.88;;;6.28;;
20166;SDS011;10243;49.118;8.508;2023-03-17T02:05:19;7.47;;;6.70;;
20166;SDS011;10243;49.118;8.508;2023-03-17T02:05:40;9.18;;;6.55;;
20166;SDS011;10243;49.118;8.508;2023-03-17T02:06:02;8.63;;;6.72;;
20166;SDS011;10243;49.118;8.508;2023-03-17T02:06:23;7.22;;;6.63;;
20166;SDS011;10243;49.118;8.508;2023-03-17T02:06:45;7.53;;;6.78;;
20166;SDS011;10243;49.118;8.508;2023-03-17T02:07:08;7.55;;;6.80;;
20166;SDS011;10243;49.118;8.508;2023-03-17T02:07:32;7.60;;;6.70;;
20166;SDS011;10243;49.118;8.508;2023-03-17T02:07:53;7.50;;;6.70;;
20166;SDS011;10243;49.118;8.508;2023-03-17T02:08:19;7.68;;;6.80;;
20166;SDS011;10243;49.118;8.508;2023-03-17T02:08:41;7.57;;;6.38;;
20166;SDS011;10243;49.118;8.508;2023-03-17T02:09:01;8.32;;;6.65;;
20166;SDS011;10243;49.118;8.508;2023-03-17T02:09:22;8.30;;;7.00;;
20166;SDS011;10243;49.118;8.508;2023-03-17T02:09:42;7.07;;;6.33;;
20166;SDS011;10243;49.118;8.508;2023-03-17T02:10:05;8.18;;;6.38;;
20166;SDS011;10243;49.118;8.508;2023-03-17T02:10:26;7.97;;;6.32;;
20166;SDS011;10243;49.118;8.508;2023-03-17T02:10:47;7.70;;;6.55;;
20166;SDS011;10243;49.118;8.508;2023-03-17T02:11:09;8.77;;;6.35;;
20166;SDS011;10243;49.118;8.508;2023-03-17T02:11:30;9.93;;;6.40;;
20166;SDS011;10243;49.118;8.508;2023-03-17T02:11:52;8.10;;;6.30;;
20166;SDS011;10243;49.118;8.508;2023-03-17T02:12:12;7.17;;;6.40;;
20166;SDS011;10243;49.118;8.508;2023-03-17T02:12:34;7.47;;;6.45;;